Time;durP1;ratioP1;P1;durP2;ratioP2;P2;SDS_P1;SDS_P2;PMS_P1;PMS_P2;Temp;Humidity;BMP_temperature;BMP_pressure;BME280_temperature;BME280_humidity;BME280_pressure;Samples;Min_cycle;Max_cycle;Signal;HPM_P1;HPM_P2
2020/04/01 00:02:43;;;;;;;10.5;9.4;;;;;;;0.25;69.85547;964.8907;;;;
2020/04/01 00:05:07;;;;;;;11.1;10;;;;;;;0.28;69.92871;964.8754;;;;
2020/04/01 00:07:58;;;;;;;10.1;9.2;;;;;;;0.26;70.03809;964.7874;;;;
2020/04/01 00:10:25;;;;;;;10;8.9;;;;;;;0.2;70.34082;964.8198;;;;
2020/04/01 00:12:50;;;;;;;10.4;9.4;;;;;;;0.17;70.23535;964.7665;;;;
2020/04/01 00:15:15;;;;;;;10.6;9.5;;;;;;;0.2;71.35254;964.7686;;;;
2020/04/01 00:17:40;;;;;;;10.7;9.6;;;;;;;-0.05;71.44629;964.6994;;;;
2020/04/01 00:20:05;;;;;;;11.2;10.1;;;;;;;0.04;70.74121;964.6747;;;;
2020/04/01 00:22:30;;;;;;;11.3;10.2;;;;;;;-0.01;70.83594;964.626;;;;
2020/04/01 00:25:08;;;;;;;11.6;10.5;;;;;;;0.02;70.62695;964.6303;;;;
2020/04/01 00:27:34;;;;;;;11.6;10.4;;;;;;;-0.14;71.17285;964.6028;;;;
2020/04/01 00:29:59;;;;;;;11.3;10.2;;;;;;;-0.13;71.30859;964.5992;;;;
2020/04/01 00:32:24;;;;;;;11;9.8;;;;;;;-0.12;71.08594;964.5341;;;;
2020/04/01 00:34:49;;;;;;;11.5;10.4;;;;;;;-0.31;71.88477;964.5583;;;;
2020/04/01 00:37:14;;;;;;;11.6;10.4;;;;;;;-0.31;71.46973;964.5559;;;;
2020/04/01 00:39:39;;;;;;;11.2;10;;;;;;;-0.38;71.68164;964.5305;;;;
2020/04/01 00:42:04;;;;;;;11.8;10.6;;;;;;;-0.38;72.16406;964.4769;;;;
2020/04/01 00:44:29;;;;;;;11.6;10.4;;;;;;;-0.24;72.42285;964.4821;;;;
2020/04/01 00:46:54;;;;;;;11.8;10.6;;;;;;;-0.43;71.96387;964.3956;;;;
2020/04/01 00:49:19;;;;;;;11.1;10;;;;;;;-0.44;71.5918;964.4052;;;;
2020/04/01 00:51:49;;;;;;;12.3;10.3;;;;;;;-0.48;73.04297;964.4288;;;;
2020/04/01 00:54:14;;;;;;;11.9;10.7;;;;;;;-0.43;72.7041;964.3722;;;;
2020/04/01 00:57:37;;;;;;;11.4;10.3;;;;;;;-0.38;71.95117;964.3408;;;;
2020/04/01 01:00:01;;;;;;;11.5;10.3;;;;;;;-0.55;71.9668;964.3577;;;;
2020/04/01 01:02:27;;;;;;;11;9.9;;;;;;;-0.5;71.88574;964.3276;;;;
2020/04/01 01:05:07;;;;;;;11.8;10.6;;;;;;;-0.62;72.02148;964.3314;;;;
2020/04/01 01:07:51;;;;;;;11.5;10.3;;;;;;;-0.46;71.15137;964.332;;;;
2020/04/01 01:10:15;;;;;;;11.9;10.6;;;;;;;-0.47;71.67871;964.2939;;;;
2020/04/01 01:12:58;;;;;;;11.7;10.5;;;;;;;-0.56;72.06445;964.2634;;;;
2020/04/01 01:15:24;;;;;;;11.7;10.5;;;;;;;-0.6;72.42773;964.2699;;;;
2020/04/01 01:17:49;;;;;;;12;10.8;;;;;;;-0.66;72.12598;964.2593;;;;
2020/04/01 01:20:14;;;;;;;11.9;10.7;;;;;;;-0.54;71.12695;964.1973;;;;
2020/04/01 01:22:39;;;;;;;11.7;10.5;;;;;;;-0.62;71.83105;964.1887;;;;
2020/04/01 01:25:04;;;;;;;11.4;10.2;;;;;;;-0.5;71.82813;964.2153;;;;
2020/04/01 01:27:29;;;;;;;11.2;10.1;;;;;;;-0.62;71.28125;964.1868;;;;
2020/04/01 01:30:18;;;;;;;11.9;10.7;;;;;;;-0.6;71.30664;964.1803;;;;
2020/04/01 01:32:43;;;;;;;11.6;10.4;;;;;;;-0.56;71.8291;964.1328;;;;
2020/04/01 01:35:09;;;;;;;11.5;10.3;;;;;;;-0.53;71.64551;964.0592;;;;
2020/04/01 01:37:59;;;;;;;11.6;10.4;;;;;;;-0.52;71.31055;964.0103;;;;
2020/04/01 01:40:24;;;;;;;11.3;10.2;;;;;;;-0.52;71.55762;963.991;;;;
2020/04/01 01:42:49;;;;;;;11.9;10.7;;;;;;;-0.52;72.58789;963.9699;;;;
2020/04/01 01:45:15;;;;;;;10.8;9.7;;;;;;;-0.54;71.46387;963.9508;;;;
2020/04/01 01:47:40;;;;;;;11.5;10.3;;;;;;;-0.68;72.53809;963.9749;;;;
2020/04/01 01:50:17;;;;;;;11.3;10.2;;;;;;;-0.65;72.37598;963.9475;;;;
2020/04/01 01:52:43;;;;;;;11.8;10.6;;;;;;;-0.8;73.16797;963.9511;;;;
2020/04/01 01:55:08;;;;;;;11.6;10.5;;;;;;;-0.7;72.24512;963.9628;;;;
2020/04/01 01:57:33;;;;;;;11.5;10.3;;;;;;;-0.73;72.89941;963.9213;;;;
2020/04/01 02:00:07;;;;;;;11.5;10.4;;;;;;;-0.73;72.83398;963.8823;;;;
2020/04/01 02:02:44;;;;;;;11.6;10.4;;;;;;;-0.55;71.67383;963.8692;;;;
2020/04/01 02:05:09;;;;;;;11.5;10.4;;;;;;;-0.6;71.55371;963.8611;;;;
2020/04/01 02:07:35;;;;;;;11.5;10.3;;;;;;;-0.7;71.63965;963.8395;;;;
2020/04/01 02:10:00;;;;;;;11.7;10.5;;;;;;;-0.78;72.56738;963.823;;;;
2020/04/01 02:12:25;;;;;;;12.5;11.2;;;;;;;-0.81;72.19238;963.7963;;;;
2020/04/01 02:14:50;;;;;;;11.7;10.6;;;;;;;-0.81;73.2666;963.7941;;;;
2020/04/01 02:17:15;;;;;;;13.7;10.7;;;;;;;-0.76;73.20898;963.7601;;;;
2020/04/01 02:19:40;;;;;;;12.1;10.9;;;;;;;-0.82;73.16406;963.668;;;;
2020/04/01 02:22:05;;;;;;;11.8;10.6;;;;;;;-0.83;73.49902;963.6755;;;;
2020/04/01 02:24:31;;;;;;;12;10.8;;;;;;;-0.81;73.65918;963.6917;;;;
2020/04/01 02:27:35;;;;;;;12.4;11.2;;;;;;;-0.78;73.61914;963.6576;;;;
2020/04/01 02:30:01;;;;;;;12.5;11.2;;;;;;;-0.81;74.43359;963.6331;;;;
2020/04/01 02:32:26;;;;;;;11.9;10.7;;;;;;;-0.84;73.75488;963.5402;;;;
2020/04/01 02:34:51;;;;;;;11.8;10.6;;;;;;;-0.74;73.14355;963.58;;;;
2020/04/01 02:37:44;;;;;;;11.2;10.1;;;;;;;-0.72;73.54004;963.5024;;;;
2020/04/01 02:40:22;;;;;;;12.4;11.2;;;;;;;-0.97;73.91113;963.4911;;;;
2020/04/01 02:42:47;;;;;;;12.5;11.3;;;;;;;-0.98;74.99609;963.5023;;;;
2020/04/01 02:45:12;;;;;;;12.8;11.5;;;;;;;-0.92;74.53516;963.5226;;;;
2020/04/01 02:47:46;;;;;;;12.9;11.6;;;;;;;-0.87;73.84863;963.4881;;;;
2020/04/01 02:50:11;;;;;;;13.4;12.1;;;;;;;-0.86;74.7832;963.4647;;;;
2020/04/01 02:52:37;;;;;;;13.1;11.7;;;;;;;-0.86;74.97363;963.4653;;;;
2020/04/01 02:55:02;;;;;;;13.5;12.1;;;;;;;-0.9;74.70605;963.3756;;;;
2020/04/01 02:57:31;;;;;;;13.2;11.9;;;;;;;-0.88;75.04688;963.3333;;;;
2020/04/01 02:59:56;;;;;;;13.7;12.3;;;;;;;-0.94;74.45313;963.3717;;;;
2020/04/01 03:03:22;;;;;;;13.4;12;;;;;;;-1.08;75.93945;963.3281;;;;
2020/04/01 03:07:53;;;;;;;12.7;11.5;;;;;;;-0.95;75.35938;963.3072;;;;
2020/04/01 03:10:18;;;;;;;14.2;12.5;;;;;;;-1.13;75.96582;963.2315;;;;
2020/04/01 03:13:30;;;;;;;14.5;13;;;;;;;-1.1;76.62109;963.241;;;;
2020/04/01 03:17:08;;;;;;;13.7;12.4;;;;;;;-1.15;76.95898;963.2731;;;;
2020/04/01 03:19:33;;;;;;;14.4;12.9;;;;;;;-1.27;76.5791;963.2665;;;;
2020/04/01 03:21:59;;;;;;;14.7;13.1;;;;;;;-1.32;76.79297;963.2517;;;;
2020/04/01 03:24:24;;;;;;;13.9;12.5;;;;;;;-1.18;76.46094;963.2388;;;;
2020/04/01 03:26:50;;;;;;;15.2;13.7;;;;;;;-1.44;77.56641;963.2595;;;;
2020/04/01 03:29:14;;;;;;;15;13.5;;;;;;;-1.46;77.91016;963.1735;;;;
2020/04/01 03:31:39;;;;;;;15.6;13.4;;;;;;;-1.26;77.52148;963.1786;;;;
2020/04/01 03:34:04;;;;;;;15.7;14.2;;;;;;;-1.12;77.2998;963.1256;;;;
2020/04/01 03:36:29;;;;;;;16.4;13.8;;;;;;;-1.22;76.54395;963.1216;;;;
2020/04/01 03:38:54;;;;;;;15.5;13.9;;;;;;;-1.33;76.89258;963.0683;;;;
2020/04/01 03:41:25;;;;;;;15.2;13.2;;;;;;;-1.32;77.33008;963.1232;;;;
2020/04/01 03:43:50;;;;;;;18;14.4;;;;;;;-1.52;77.61914;963.0663;;;;
2020/04/01 03:46:15;;;;;;;15.4;13.8;;;;;;;-1.48;77.7041;963.0706;;;;
2020/04/01 03:48:40;;;;;;;15;13.6;;;;;;;-1.55;78.17285;963.0572;;;;
2020/04/01 03:52:21;;;;;;;15.9;14.3;;;;;;;-1.28;77.21387;963.046;;;;
2020/04/01 03:54:46;;;;;;;15;13.5;;;;;;;-1.33;77.75293;963.0312;;;;
2020/04/01 03:57:11;;;;;;;14.5;13.1;;;;;;;-1.37;77.48828;962.9847;;;;
2020/04/01 03:59:37;;;;;;;16;14.5;;;;;;;-1.42;78.46484;963.0245;;;;
2020/04/01 04:02:27;;;;;;;14.8;13.2;;;;;;;-1.43;78.41699;962.9995;;;;
2020/04/01 04:04:52;;;;;;;15.6;14;;;;;;;-1.49;78.11621;962.9877;;;;
2020/04/01 04:07:17;;;;;;;16.2;14.6;;;;;;;-1.52;78.65918;962.997;;;;
2020/04/01 04:09:43;;;;;;;15.2;13.7;;;;;;;-1.56;78.16992;962.9814;;;;
2020/04/01 04:12:56;;;;;;;15;13.3;;;;;;;-1.55;78.51855;963.0297;;;;
2020/04/01 04:15:25;;;;;;;15.6;14;;;;;;;-1.52;79.14941;962.9478;;;;
2020/04/01 04:17:52;;;;;;;16.9;15.2;;;;;;;-1.52;78.92578;962.9824;;;;
2020/04/01 04:20:16;;;;;;;15.8;14.3;;;;;;;-1.4;79.16211;963.024;;;;
2020/04/01 04:22:41;;;;;;;17;15.3;;;;;;;-1.6;79.80566;963.0084;;;;
2020/04/01 04:25:06;;;;;;;15.9;14.2;;;;;;;-1.65;79.47266;962.9802;;;;
2020/04/01 04:27:31;;;;;;;16.8;15.2;;;;;;;-1.65;80.08594;962.9664;;;;
2020/04/01 04:29:56;;;;;;;15.7;14.2;;;;;;;-1.57;80.21387;962.9202;;;;
2020/04/01 04:32:27;;;;;;;16.3;14.7;;;;;;;-1.63;80.5498;962.9401;;;;
2020/04/01 04:34:52;;;;;;;17.1;15.4;;;;;;;-1.63;80.42676;962.8723;;;;
2020/04/01 04:37:17;;;;;;;18.1;16.1;;;;;;;-1.6;80.60156;962.9192;;;;
2020/04/01 04:39:42;;;;;;;16.5;14.9;;;;;;;-1.57;80.40332;962.9537;;;;
2020/04/01 04:42:07;;;;;;;16.5;14.8;;;;;;;-1.64;81.20801;962.9594;;;;
2020/04/01 04:44:32;;;;;;;16.9;15.2;;;;;;;-1.62;80.97656;962.8983;;;;
2020/04/01 04:46:57;;;;;;;18.4;16.6;;;;;;;-1.61;80.85742;962.9011;;;;
2020/04/01 04:49:23;;;;;;;18;16;;;;;;;-1.57;80.76367;962.9838;;;;
2020/04/01 04:51:48;;;;;;;16.7;15.1;;;;;;;-1.63;80.77344;962.9922;;;;
2020/04/01 04:54:26;;;;;;;16.5;14.9;;;;;;;-1.71;81.5293;962.9582;;;;
2020/04/01 04:56:51;;;;;;;18.6;16.6;;;;;;;-1.82;81.82324;962.9294;;;;
2020/04/01 04:59:16;;;;;;;18.6;16.8;;;;;;;-1.86;82.13867;962.9486;;;;
2020/04/01 05:01:41;;;;;;;18.1;16.4;;;;;;;-1.87;82.41699;962.9026;;;;
2020/04/01 05:04:06;;;;;;;18.3;16.3;;;;;;;-1.65;81.65234;962.9136;;;;
2020/04/01 05:06:31;;;;;;;18.8;16.8;;;;;;;-1.85;82.66602;962.9431;;;;
2020/04/01 05:08:56;;;;;;;18.5;16.5;;;;;;;-1.68;81.81641;962.9191;;;;
2020/04/01 05:11:21;;;;;;;18.5;16.5;;;;;;;-1.64;82.05762;962.8915;;;;
2020/04/01 05:13:47;;;;;;;19.1;17.2;;;;;;;-1.7;82.54004;962.9083;;;;
2020/04/01 05:16:12;;;;;;;19;17;;;;;;;-1.67;82.08594;962.916;;;;
2020/04/01 05:18:37;;;;;;;20.1;18;;;;;;;-1.81;82.7959;962.9141;;;;
2020/04/01 05:21:02;;;;;;;20.6;18.5;;;;;;;-1.84;83.73047;962.9103;;;;
2020/04/01 05:23:27;;;;;;;19.8;17.9;;;;;;;-1.91;83.08008;962.8951;;;;
2020/04/01 05:25:52;;;;;;;19.7;17.6;;;;;;;-1.8;82.82227;962.9313;;;;
2020/04/01 05:28:17;;;;;;;20.5;18.3;;;;;;;-1.75;83.14453;962.8644;;;;
2020/04/01 05:30:42;;;;;;;20.5;18.4;;;;;;;-1.77;82.89453;962.92;;;;
2020/04/01 05:33:07;;;;;;;21.5;19.2;;;;;;;-1.72;83.82031;962.8602;;;;
2020/04/01 05:35:32;;;;;;;20.9;18.8;;;;;;;-1.81;83.65723;962.9175;;;;
2020/04/01 05:37:58;;;;;;;22.1;19.7;;;;;;;-1.81;84.65234;962.93;;;;
2020/04/01 05:40:23;;;;;;;21.2;19.1;;;;;;;-1.65;83.3291;962.8833;;;;
2020/04/01 05:42:48;;;;;;;21.1;19;;;;;;;-1.67;83.29395;962.8312;;;;
2020/04/01 05:46:31;;;;;;;21;18.8;;;;;;;-1.57;83.16797;962.9147;;;;
2020/04/01 05:48:57;;;;;;;20.9;18.8;;;;;;;-1.57;83.17969;962.8933;;;;
2020/04/01 05:51:21;;;;;;;21.9;19.7;;;;;;;-1.65;83.92383;962.8805;;;;
2020/04/01 05:53:47;;;;;;;22.1;19.7;;;;;;;-1.51;83.89648;962.9407;;;;
2020/04/01 05:56:12;;;;;;;21.5;19.4;;;;;;;-1.41;83.16797;962.9097;;;;
2020/04/01 05:58:37;;;;;;;21.7;19.5;;;;;;;-1.35;82.97559;962.9481;;;;
2020/04/01 06:01:02;;;;;;;21.5;19.3;;;;;;;-1.26;82.79199;962.9609;;;;
2020/04/01 06:03:27;;;;;;;21.6;19.3;;;;;;;-1.14;82.92871;962.9197;;;;
2020/04/01 06:05:52;;;;;;;21.4;19.2;;;;;;;-1.13;82.57227;962.9309;;;;
2020/04/01 06:08:17;;;;;;;21.3;19.1;;;;;;;-1.03;82.43457;962.9266;;;;
2020/04/01 06:10:44;;;;;;;20.9;18.7;;;;;;;-1.02;82.0127;962.9336;;;;
2020/04/01 06:13:08;;;;;;;23;20.6;;;;;;;-1.07;82.0918;962.9105;;;;
2020/04/01 06:15:33;;;;;;;21.7;19.4;;;;;;;-1.26;83.07227;962.8953;;;;
2020/04/01 06:17:58;;;;;;;20.6;18.6;;;;;;;-1.25;83.59082;962.8716;;;;
2020/04/01 06:20:23;;;;;;;22.4;20;;;;;;;-1.3;83.71582;962.853;;;;
2020/04/01 06:22:48;;;;;;;23.6;21.3;;;;;;;-1.47;84.78809;962.9003;;;;
2020/04/01 06:25:13;;;;;;;22.8;20.6;;;;;;;-1.45;85.46289;962.9105;;;;
2020/04/01 06:27:38;;;;;;;22.6;20.4;;;;;;;-1.12;84.57813;962.8403;;;;
2020/04/01 06:30:03;;;;;;;23.8;21.3;;;;;;;-1.19;84.12695;962.8439;;;;
2020/04/01 06:32:28;;;;;;;22.9;20.5;;;;;;;-1.01;83.99707;962.8234;;;;
2020/04/01 06:34:53;;;;;;;22.1;19.9;;;;;;;-0.94;83.37109;962.9166;;;;
2020/04/01 06:37:18;;;;;;;22.9;20.6;;;;;;;-1.15;83.63281;962.9073;;;;
2020/04/01 06:39:43;;;;;;;23.5;21.1;;;;;;;-0.99;83.80078;962.9017;;;;
2020/04/01 06:42:09;;;;;;;23.3;20.9;;;;;;;-0.87;82.94629;962.877;;;;
2020/04/01 06:44:34;;;;;;;23.5;21;;;;;;;-0.87;83.4502;962.8915;;;;
2020/04/01 06:46:59;;;;;;;22;19.9;;;;;;;-0.78;82.90039;962.8647;;;;
2020/04/01 06:50:50;;;;;;;22.3;20.1;;;;;;;-0.84;82.98828;962.8855;;;;
2020/04/01 06:53:25;;;;;;;23.3;20.9;;;;;;;-0.62;82.91895;962.8873;;;;
2020/04/01 06:55:50;;;;;;;22.1;19.7;;;;;;;-0.3;81.66992;962.7651;;;;
2020/04/01 06:58:25;;;;;;;22.7;20.4;;;;;;;-0.11;80.88672;962.7981;;;;
2020/04/01 07:00:50;;;;;;;23.6;21.2;;;;;;;-0.57;81.87598;962.7653;;;;
2020/04/01 07:03:15;;;;;;;23.3;20.8;;;;;;;-0.55;82.30371;962.7361;;;;
2020/04/01 07:05:41;;;;;;;21.8;19.6;;;;;;;-0.37;81.76758;962.7297;;;;
2020/04/01 07:08:06;;;;;;;22.4;20.2;;;;;;;-0.29;81.94043;962.759;;;;
2020/04/01 07:10:31;;;;;;;21.6;19.3;;;;;;;-0.13;81.08691;962.74;;;;
2020/04/01 07:12:56;;;;;;;22.2;19.8;;;;;;;-0.13;81.33203;962.7078;;;;
2020/04/01 07:15:21;;;;;;;22;19.6;;;;;;;-0.1;81.85352;962.6742;;;;
2020/04/01 07:17:46;;;;;;;22.1;19.9;;;;;;;0.07;82.14551;962.6319;;;;
2020/04/01 07:20:11;;;;;;;21.9;19.7;;;;;;;-0.02;81.38672;962.6606;;;;
2020/04/01 07:22:37;;;;;;;22.5;20.2;;;;;;;0.26;80.7002;962.5934;;;;
2020/04/01 07:25:02;;;;;;;21.3;19.2;;;;;;;0.23;81.57031;962.5834;;;;
2020/04/01 07:27:27;;;;;;;20.5;18.4;;;;;;;0.64;79.27539;962.5991;;;;
2020/04/01 07:29:52;;;;;;;20.7;18.6;;;;;;;0.45;79.30859;962.6273;;;;
2020/04/01 07:32:17;;;;;;;22;19.1;;;;;;;0.5;80.48633;962.5825;;;;
2020/04/01 07:34:42;;;;;;;20.3;18.2;;;;;;;0.78;78.57129;962.5598;;;;
2020/04/01 07:37:08;;;;;;;21.5;19.3;;;;;;;0.89;78.57031;962.5751;;;;
2020/04/01 07:39:43;;;;;;;20.2;18.1;;;;;;;1.02;77.625;962.6152;;;;
2020/04/01 07:42:08;;;;;;;19.4;17.5;;;;;;;0.98;78.21484;962.5895;;;;
2020/04/01 07:44:33;;;;;;;18.8;16.9;;;;;;;1.09;77.18848;962.5647;;;;
2020/04/01 07:46:58;;;;;;;19;17.1;;;;;;;1.31;76.67773;962.6116;;;;
2020/04/01 07:49:23;;;;;;;18.2;16.4;;;;;;;1.28;76.78516;962.6506;;;;
2020/04/01 07:51:48;;;;;;;19.3;17.4;;;;;;;1.19;77.18555;962.6406;;;;
2020/04/01 07:54:13;;;;;;;17.8;15.9;;;;;;;1.49;76.25879;962.6284;;;;
2020/04/01 07:56:39;;;;;;;18.4;16.5;;;;;;;1.49;75.17773;962.5961;;;;
2020/04/01 07:59:04;;;;;;;18.1;16.1;;;;;;;1.65;74.76465;962.6345;;;;
2020/04/01 08:01:29;;;;;;;17.7;15.2;;;;;;;1.74;74.7373;962.6191;;;;
2020/04/01 08:03:54;;;;;;;16.5;14.8;;;;;;;1.84;73.60449;962.6158;;;;
2020/04/01 08:06:19;;;;;;;16.2;14.5;;;;;;;1.84;73.20996;962.7097;;;;
2020/04/01 08:08:45;;;;;;;16;14.3;;;;;;;2.04;72.80371;962.7117;;;;
2020/04/01 08:11:10;;;;;;;17;15.1;;;;;;;2.02;73.2168;962.7552;;;;
2020/04/01 08:13:35;;;;;;;16.7;15;;;;;;;2.14;73.08008;962.7114;;;;
2020/04/01 08:16:00;;;;;;;16;14.5;;;;;;;1.94;74.08203;962.676;;;;
2020/04/01 08:18:25;;;;;;;16.7;14.9;;;;;;;2.09;73.36523;962.7006;;;;
2020/04/01 08:21:03;;;;;;;16.5;14.8;;;;;;;2.13;73.13477;962.6948;;;;
2020/04/01 08:23:29;;;;;;;16.5;14.8;;;;;;;2.19;72.29883;962.675;;;;
2020/04/01 08:25:54;;;;;;;16.8;14.5;;;;;;;2.52;70.9873;962.6278;;;;
2020/04/01 08:28:19;;;;;;;16.1;14.4;;;;;;;2.62;72.42871;962.6519;;;;
2020/04/01 08:30:44;;;;;;;16.1;14.5;;;;;;;2.52;71.39551;962.6699;;;;
2020/04/01 08:33:09;;;;;;;16.7;15;;;;;;;2.53;71.89258;962.6564;;;;
2020/04/01 08:35:34;;;;;;;16.1;14.5;;;;;;;2.69;71.45801;962.6398;;;;
2020/04/01 08:39:12;;;;;;;16.1;14.3;;;;;;;2.81;69.62402;962.5886;;;;
2020/04/01 08:42:52;;;;;;;15.5;13.7;;;;;;;2.97;68.80273;962.5829;;;;
2020/04/01 08:45:18;;;;;;;14.8;13.2;;;;;;;3.09;69.17188;962.5522;;;;
2020/04/01 08:47:43;;;;;;;15.2;13.6;;;;;;;3.3;68.12109;962.5398;;;;
2020/04/01 08:50:18;;;;;;;15.3;13.5;;;;;;;3.37;69.39844;962.4648;;;;
2020/04/01 08:52:43;;;;;;;14;12.5;;;;;;;3.65;66.53418;962.4939;;;;
2020/04/01 08:55:09;;;;;;;13.7;12.3;;;;;;;3.67;65.41602;962.4366;;;;
2020/04/01 08:57:34;;;;;;;13.5;11.5;;;;;;;3.86;65.80762;962.4233;;;;
2020/04/01 09:00:12;;;;;;;12.3;11;;;;;;;3.72;63.83887;962.4046;;;;
2020/04/01 09:02:24;;;;;;;13;11;;;;;;;3.8;63.94141;962.4078;;;;
2020/04/01 09:04:50;;;;;;;11.3;10.1;;;;;;;3.98;60.79395;962.3441;;;;
2020/04/01 09:07:15;;;;;;;12.6;11.3;;;;;;;3.98;60.85156;962.3733;;;;
2020/04/01 09:10:12;;;;;;;12.9;11.5;;;;;;;3.63;63.9502;962.2907;;;;
2020/04/01 09:13:52;;;;;;;12;10.8;;;;;;;3.98;62.11914;962.2509;;;;
2020/04/01 09:16:17;;;;;;;12.5;11.3;;;;;;;4.08;61.39844;962.2095;;;;
2020/04/01 09:18:42;;;;;;;12.8;11.5;;;;;;;4.23;62.65527;962.2258;;;;
2020/04/01 09:21:07;;;;;;;13.5;11.8;;;;;;;4.26;60.95898;962.2519;;;;
2020/04/01 09:23:32;;;;;;;13;11.6;;;;;;;4.36;61.29102;962.2209;;;;
2020/04/01 09:25:57;;;;;;;12.8;11.4;;;;;;;4.47;61.47656;962.2391;;;;
2020/04/01 09:28:23;;;;;;;12.2;11;;;;;;;4.42;59.5752;962.2609;;;;
2020/04/01 09:30:48;;;;;;;11.6;10.5;;;;;;;4.4;58.33496;962.2289;;;;
2020/04/01 09:33:13;;;;;;;11.9;10.1;;;;;;;4.57;58.39258;962.2009;;;;
2020/04/01 09:35:38;;;;;;;12.5;10.1;;;;;;;4.72;57.91406;962.1397;;;;
2020/04/01 09:38:03;;;;;;;11.2;10.1;;;;;;;4.85;58.20313;962.1353;;;;
2020/04/01 09:40:28;;;;;;;10.4;9.1;;;;;;;4.78;54.76465;962.09;;;;
2020/04/01 09:42:53;;;;;;;9.9;8.9;;;;;;;4.86;55.80859;962.0565;;;;
2020/04/01 09:46:40;;;;;;;10.2;9.2;;;;;;;4.76;54.33008;962.032;;;;
2020/04/01 09:49:15;;;;;;;10.3;9.3;;;;;;;4.98;53.90625;962.0153;;;;
2020/04/01 09:51:40;;;;;;;11.1;9.9;;;;;;;5.04;54.31055;961.9919;;;;
2020/04/01 09:54:33;;;;;;;10.7;9.6;;;;;;;5.03;54.26367;961.991;;;;
2020/04/01 09:56:58;;;;;;;10.1;9.1;;;;;;;4.98;54.58789;961.9409;;;;
2020/04/01 09:59:24;;;;;;;11;10;;;;;;;4.99;55.12109;961.8775;;;;
2020/04/01 10:01:50;;;;;;;11.1;10;;;;;;;5.1;53.75;961.8282;;;;
2020/04/01 10:04:15;;;;;;;10;8.6;;;;;;;5.08;52.97363;961.7375;;;;
2020/04/01 10:06:40;;;;;;;10.5;8.8;;;;;;;5.38;52.91992;961.7947;;;;
2020/04/01 10:09:05;;;;;;;9.9;8.9;;;;;;;5.19;53.48828;961.6891;;;;
2020/04/01 10:11:30;;;;;;;10.2;9.1;;;;;;;4.9;54.29297;961.7564;;;;
2020/04/01 10:13:56;;;;;;;10.2;9.2;;;;;;;5.12;51.96777;961.6128;;;;
2020/04/01 10:16:21;;;;;;;10.3;9.3;;;;;;;5.26;51.37012;961.5522;;;;
2020/04/01 10:18:46;;;;;;;9.9;8.4;;;;;;;5.42;50.95801;961.5502;;;;
2020/04/01 10:21:11;;;;;;;9.2;8.3;;;;;;;5.59;51.21777;961.5883;;;;
2020/04/01 10:23:36;;;;;;;8.8;8;;;;;;;5.41;50.02441;961.5408;;;;
2020/04/01 10:26:01;;;;;;;9.4;8.5;;;;;;;5.61;50.57129;961.5435;;;;
2020/04/01 10:28:26;;;;;;;10.8;9.7;;;;;;;5.53;50.63086;961.4592;;;;
2020/04/01 10:30:51;;;;;;;9.7;8.7;;;;;;;5.58;51.81934;961.4986;;;;
2020/04/01 10:33:16;;;;;;;9.8;8.8;;;;;;;5.75;52.32813;961.4836;;;;
2020/04/01 10:35:41;;;;;;;10.1;9.1;;;;;;;5.79;50.88867;961.4327;;;;
2020/04/01 10:38:06;;;;;;;10;8.9;;;;;;;6.01;50.48047;961.4537;;;;
2020/04/01 10:40:32;;;;;;;9.5;8.6;;;;;;;5.72;49.65137;961.4375;;;;
2020/04/01 10:43:00;;;;;;;9.9;8.9;;;;;;;5.54;49.33398;961.3596;;;;
2020/04/01 10:45:25;;;;;;;9.3;8.4;;;;;;;5.67;49.87305;961.3536;;;;
2020/04/01 10:47:50;;;;;;;9.4;8.5;;;;;;;5.9;49.29688;961.3289;;;;
2020/04/01 10:50:15;;;;;;;9.3;8.4;;;;;;;5.83;48.77637;961.2733;;;;
2020/04/01 10:52:40;;;;;;;9.2;8.3;;;;;;;6.11;48.3418;961.243;;;;
2020/04/01 10:55:06;;;;;;;8.8;7.9;;;;;;;6.13;48.22852;961.2149;;;;
2020/04/01 10:57:30;;;;;;;9.2;8.3;;;;;;;6.14;47.52344;961.1483;;;;
2020/04/01 10:59:56;;;;;;;9.7;8.2;;;;;;;6.3;47.98633;961.1594;;;;
2020/04/01 11:02:21;;;;;;;9.5;8.2;;;;;;;6.25;46.38672;961.178;;;;
2020/04/01 11:04:46;;;;;;;9.3;7.3;;;;;;;6.13;45.79199;961.1131;;;;
2020/04/01 11:07:11;;;;;;;8.8;7.9;;;;;;;6.31;46.11914;961.0657;;;;
2020/04/01 11:09:50;;;;;;;10.8;8.5;;;;;;;6.32;46.2666;961.0759;;;;
2020/04/01 11:12:37;;;;;;;9.8;7.8;;;;;;;6.09;47.79102;960.9288;;;;
2020/04/01 11:15:03;;;;;;;9.4;8.5;;;;;;;6.01;47.18066;960.9213;;;;
2020/04/01 11:17:28;;;;;;;9.4;8.1;;;;;;;6.4;46.7666;960.8761;;;;
2020/04/01 11:19:53;;;;;;;9.4;8;;;;;;;6.64;48.38867;960.8787;;;;
2020/04/01 11:22:18;;;;;;;10.4;9.3;;;;;;;6.55;46.22363;960.8613;;;;
2020/04/01 11:24:43;;;;;;;9.6;8.4;;;;;;;6.33;46.24609;960.8837;;;;
2020/04/01 11:27:08;;;;;;;10;8.7;;;;;;;6.41;47.73633;960.8179;;;;
2020/04/01 11:29:33;;;;;;;8.9;8;;;;;;;6.4;46.18555;960.8074;;;;
2020/04/01 11:31:58;;;;;;;9.2;8.2;;;;;;;6.55;45.26563;960.7266;;;;
2020/04/01 11:34:23;;;;;;;9.7;7.7;;;;;;;6.84;46.4043;960.6788;;;;
2020/04/01 11:36:48;;;;;;;10.1;8.2;;;;;;;7.18;45.54883;960.6103;;;;
2020/04/01 11:39:14;;;;;;;10.4;8.5;;;;;;;7.16;44.25781;960.6136;;;;
2020/04/01 11:41:55;;;;;;;11.6;7.5;;;;;;;7.36;43.90137;960.6333;;;;
2020/04/01 11:44:21;;;;;;;8.8;7.8;;;;;;;6.86;43.75879;960.5854;;;;
2020/04/01 11:46:45;;;;;;;8.5;7.7;;;;;;;6.84;43.35645;960.494;;;;
2020/04/01 11:49:11;;;;;;;9.2;8.3;;;;;;;6.63;44.31641;960.4827;;;;
2020/04/01 11:51:36;;;;;;;8.7;7.8;;;;;;;6.47;45.04102;960.4291;;;;
2020/04/01 11:54:01;;;;;;;9;8.1;;;;;;;6.7;44.78125;960.3105;;;;
2020/04/01 11:56:26;;;;;;;10.3;8.1;;;;;;;6.81;44.92871;960.2719;;;;
2020/04/01 11:58:51;;;;;;;9.2;8.3;;;;;;;6.96;43.4834;960.3272;;;;
2020/04/01 12:01:16;;;;;;;8.4;7.6;;;;;;;7.03;42.90723;960.284;;;;
2020/04/01 12:03:41;;;;;;;9.4;7.8;;;;;;;7.2;42.45703;960.2955;;;;
2020/04/01 12:06:06;;;;;;;8.7;7.5;;;;;;;7.05;42.06543;960.2581;;;;
2020/04/01 12:08:33;;;;;;;8.4;7.6;;;;;;;7.18;42.0332;960.2473;;;;
2020/04/01 12:11:08;;;;;;;8;7.2;;;;;;;7.24;40.55371;960.261;;;;
2020/04/01 12:13:33;;;;;;;8.7;7.1;;;;;;;7.17;41.03906;960.1487;;;;
2020/04/01 12:15:58;;;;;;;9.9;7.4;;;;;;;7.29;41.03809;960.0919;;;;
2020/04/01 12:18:24;;;;;;;7.8;7;;;;;;;7.4;40.1582;960.0947;;;;
2020/04/01 12:20:49;;;;;;;8.8;6.9;;;;;;;7.31;37.09961;960.0544;;;;
2020/04/01 12:23:27;;;;;;;7.6;6.9;;;;;;;7.46;38.64355;959.9919;;;;
2020/04/01 12:25:56;;;;;;;7.7;7;;;;;;;7.32;38.25488;960.0361;;;;
2020/04/01 12:28:22;;;;;;;7.3;6.6;;;;;;;7.53;38.71973;959.9543;;;;
2020/04/01 12:30:47;;;;;;;7.5;6.8;;;;;;;7.5;38.76172;959.8983;;;;
2020/04/01 12:33:12;;;;;;;10.4;7;;;;;;;7.46;39.24902;959.8906;;;;
2020/04/01 12:35:37;;;;;;;8.9;7.1;;;;;;;7.55;38.6748;959.882;;;;
2020/04/01 12:38:02;;;;;;;8.6;6.5;;;;;;;7.83;38.35645;959.853;;;;
2020/04/01 12:40:27;;;;;;;7.8;6.7;;;;;;;8.04;39.69141;959.8408;;;;
2020/04/01 12:42:52;;;;;;;8.7;7.6;;;;;;;8.17;38.79883;959.7935;;;;
2020/04/01 12:45:18;;;;;;;7.5;6.8;;;;;;;8.06;38.46875;959.7562;;;;
2020/04/01 12:47:43;;;;;;;8.4;7.5;;;;;;;7.93;39.24609;959.7744;;;;
2020/04/01 12:50:08;;;;;;;8.9;7.5;;;;;;;7.88;39.09375;959.6884;;;;
2020/04/01 12:52:33;;;;;;;8.4;7.6;;;;;;;7.81;38.83496;959.7156;;;;
2020/04/01 12:54:58;;;;;;;9.5;7.6;;;;;;;7.44;40.00195;959.6411;;;;
2020/04/01 12:57:23;;;;;;;8.3;7.4;;;;;;;7.66;38.98242;959.6155;;;;
2020/04/01 12:59:48;;;;;;;8.4;7.5;;;;;;;7.92;38.15918;959.5751;;;;
2020/04/01 13:02:13;;;;;;;8.2;7.4;;;;;;;7.74;39.45801;959.5179;;;;
2020/04/01 13:04:38;;;;;;;8.8;7.7;;;;;;;8.13;40.27246;959.5048;;;;
2020/04/01 13:07:13;;;;;;;8.1;7.3;;;;;;;8.01;38.96777;959.426;;;;
2020/04/01 13:09:52;;;;;;;9.1;7.4;;;;;;;7.81;38.43457;959.4367;;;;
2020/04/01 13:12:17;;;;;;;8;7.2;;;;;;;8.19;38.01074;959.3401;;;;
2020/04/01 13:14:42;;;;;;;10.4;7.4;;;;;;;8.46;37.39355;959.308;;;;
2020/04/01 13:17:07;;;;;;;9.2;7.6;;;;;;;8.42;37.99707;959.298;;;;
2020/04/01 13:19:46;;;;;;;10.6;7.6;;;;;;;8.67;39.08496;959.3038;;;;
2020/04/01 13:22:15;;;;;;;9.2;7.7;;;;;;;8.37;39.09277;959.2338;;;;
2020/04/01 13:24:40;;;;;;;8.3;7.5;;;;;;;8.43;38.03223;959.2324;;;;
2020/04/01 13:27:07;;;;;;;8.8;7.7;;;;;;;8.32;38.36621;959.162;;;;
2020/04/01 13:29:36;;;;;;;8.4;7.5;;;;;;;8.44;38.37695;959.0754;;;;
2020/04/01 13:32:01;;;;;;;8.1;7.3;;;;;;;8.54;39.16504;959.0617;;;;
2020/04/01 13:34:26;;;;;;;10.6;8.9;;;;;;;8.51;38.89844;959.0528;;;;
2020/04/01 13:36:51;;;;;;;8.6;7.6;;;;;;;8.84;39.10059;959.0717;;;;
2020/04/01 13:39:16;;;;;;;8.5;7.6;;;;;;;8.78;39.50781;959.0508;;;;
2020/04/01 13:41:41;;;;;;;9.7;7.8;;;;;;;8.71;41.53027;959.1108;;;;
2020/04/01 13:44:06;;;;;;;8.9;7.7;;;;;;;8.42;39.26953;959.0302;;;;
2020/04/01 13:46:32;;;;;;;8.6;7.3;;;;;;;8.54;39.19922;959.0145;;;;
2020/04/01 13:48:57;;;;;;;8.7;7.5;;;;;;;8.56;38.67383;958.9763;;;;
2020/04/01 13:51:22;;;;;;;8.6;7.8;;;;;;;8.64;38.89941;958.9581;;;;
2020/04/01 13:53:56;;;;;;;7.8;7.1;;;;;;;8.91;38.08691;958.9253;;;;
2020/04/01 13:56:21;;;;;;;8.5;7.6;;;;;;;8.87;39.4707;958.8799;;;;
2020/04/01 13:58:46;;;;;;;8.4;7.5;;;;;;;8.89;38.3252;958.8398;;;;
2020/04/01 14:02:00;;;;;;;8.2;7.4;;;;;;;8.79;37.53711;958.825;;;;
2020/04/01 14:04:25;;;;;;;10.4;8.1;;;;;;;8.73;37.80664;958.7975;;;;
2020/04/01 14:06:53;;;;;;;8.4;7.5;;;;;;;8.65;38.29199;958.7567;;;;
2020/04/01 14:09:18;;;;;;;8.5;7.6;;;;;;;8.61;38.81543;958.7603;;;;
2020/04/01 14:11:43;;;;;;;8.2;7.3;;;;;;;8.64;38.05078;958.7864;;;;
2020/04/01 14:14:08;;;;;;;8.4;7.5;;;;;;;8.65;38.16699;958.7543;;;;
2020/04/01 14:16:33;;;;;;;9.3;8.1;;;;;;;8.7;38.19336;958.6619;;;;
2020/04/01 14:19:01;;;;;;;8.2;7.3;;;;;;;8.7;38.18164;958.6554;;;;
2020/04/01 14:21:27;;;;;;;9.9;8;;;;;;;8.79;38.82031;958.6536;;;;
2020/04/01 14:23:49;;;;;;;8.3;7.5;;;;;;;8.81;37.53906;958.6395;;;;
2020/04/01 14:26:13;;;;;;;8.3;7.3;;;;;;;8.6;36.69629;958.5962;;;;
2020/04/01 14:28:38;;;;;;;8.4;7.5;;;;;;;8.73;38.05859;958.5919;;;;